createdAt,value
2023-10-30T00:00:54.810Z,23.6
2023-10-30T00:01:56.926Z,23.6
2023-10-30T00:02:58.838Z,23.6
2023-10-30T00:04:01.441Z,23.6
2023-10-30T00:05:03.468Z,23.5
2023-10-30T00:06:05.564Z,23.5
2023-10-30T00:07:07.378Z,23.6
2023-10-30T00:08:09.143Z,23.6
2023-10-30T00:09:11.021Z,23.6
2023-10-30T00:10:13.039Z,23.6
2023-10-30T00:11:14.836Z,23.6
2023-10-30T00:12:16.689Z,23.6
2023-10-30T00:13:18.444Z,23.6
2023-10-30T00:14:20.185Z,23.6
2023-10-30T00:15:22.003Z,23.7
2023-10-30T00:16:24.045Z,23.7
2023-10-30T00:17:26.062Z,23.6
2023-10-30T00:18:27.918Z,23.7
2023-10-30T00:19:29.734Z,23.7
2023-10-30T00:20:31.489Z,23.7
2023-10-30T00:21:33.317Z,23.7
2023-10-30T00:22:35.261Z,23.7
2023-10-30T00:23:36.995Z,23.7
2023-10-30T00:24:38.901Z,23.7
2023-10-30T00:25:40.742Z,23.7
2023-10-30T00:26:42.453Z,23.7
2023-10-30T00:27:44.149Z,23.7
2023-10-30T00:28:45.911Z,23.7
2023-10-30T00:29:48.556Z,23.7
2023-10-30T00:30:51.604Z,23.7
2023-10-30T00:31:53.503Z,23.7
2023-10-30T00:32:55.391Z,23.7
2023-10-30T00:33:57.370Z,23.7
2023-10-30T00:34:59.091Z,23.7
2023-10-30T00:36:00.835Z,23.7
2023-10-30T00:37:02.544Z,23.7
2023-10-30T00:38:04.299Z,23.8
2023-10-30T00:39:06.082Z,23.8
2023-10-30T00:40:07.865Z,23.8
2023-10-30T00:41:09.578Z,23.8
2023-10-30T00:42:11.339Z,23.8
2023-10-30T00:43:13.400Z,23.8
2023-10-30T00:44:15.122Z,23.8
2023-10-30T00:45:16.927Z,23.8
2023-10-30T00:46:19.033Z,23.8
2023-10-30T00:47:20.800Z,23.7
2023-10-30T00:48:22.608Z,23.8
2023-10-30T00:49:24.421Z,23.8
2023-10-30T00:50:26.166Z,23.8
2023-10-30T00:51:27.919Z,23.8
2023-10-30T00:52:29.798Z,23.8
2023-10-30T00:53:31.592Z,23.8
2023-10-30T00:54:33.483Z,23.8
2023-10-30T00:55:35.452Z,23.8
2023-10-30T00:56:37.186Z,23.8
2023-10-30T00:57:39.091Z,23.8
2023-10-30T00:58:40.898Z,23.8
2023-10-30T00:59:42.630Z,23.8
2023-10-30T01:00:44.547Z,23.8
2023-10-30T01:01:46.617Z,23.8
2023-10-30T01:02:49.026Z,23.8
2023-10-30T01:03:51.984Z,23.8
2023-10-30T01:04:55.420Z,23.8
2023-10-30T01:05:58.482Z,23.8
2023-10-30T01:07:00.263Z,23.8
2023-10-30T01:08:02.018Z,23.8
2023-10-30T01:09:03.932Z,23.8
2023-10-30T01:10:06.008Z,23.8
2023-10-30T01:11:07.688Z,23.8
2023-10-30T01:12:09.451Z,23.7
2023-10-30T01:13:11.365Z,23.7
2023-10-30T01:14:13.083Z,23.7
2023-10-30T01:15:14.856Z,23.7
2023-10-30T01:16:16.762Z,23.7
2023-10-30T01:17:18.760Z,23.8
2023-10-30T01:18:20.699Z,23.8
2023-10-30T01:19:22.553Z,23.7
2023-10-30T01:20:24.282Z,23.8
2023-10-30T01:21:26.137Z,23.8
2023-10-30T01:22:27.919Z,23.8
2023-10-30T01:23:29.623Z,23.8
2023-10-30T01:24:31.482Z,23.8
2023-10-30T01:25:33.811Z,23.8
2023-10-30T01:26:35.689Z,23.8
2023-10-30T01:27:37.704Z,23.8
2023-10-30T01:28:39.768Z,23.8
2023-10-30T01:29:41.482Z,23.8
2023-10-30T01:30:43.421Z,23.8
2023-10-30T01:31:45.424Z,23.8
2023-10-30T01:32:47.350Z,23.8
2023-10-30T01:33:49.701Z,23.8
2023-10-30T01:34:52.089Z,23.8
2023-10-30T01:35:53.880Z,23.8
2023-10-30T01:36:55.616Z,23.8
2023-10-30T01:37:57.318Z,23.8
2023-10-30T01:38:59.086Z,23.8
2023-10-30T01:40:00.994Z,23.8
2023-10-30T01:41:02.732Z,23.8
2023-10-30T01:42:04.468Z,23.8
2023-10-30T01:43:06.162Z,23.7
2023-10-30T01:44:07.862Z,23.8
2023-10-30T01:45:09.648Z,23.8
2023-10-30T01:46:11.569Z,23.8
2023-10-30T01:47:13.323Z,23.8
2023-10-30T01:48:15.192Z,23.8
2023-10-30T01:49:17.387Z,23.8
2023-10-30T01:50:19.140Z,23.8
2023-10-30T01:51:20.916Z,23.8
2023-10-30T01:52:22.798Z,23.8
2023-10-30T01:53:24.540Z,23.8
2023-10-30T01:54:26.298Z,23.8
2023-10-30T01:55:28.108Z,23.8
2023-10-30T01:56:29.837Z,23.7
2023-10-30T01:57:31.590Z,23.7
2023-10-30T01:58:33.650Z,23.7
2023-10-30T01:59:35.361Z,23.8
2023-10-30T02:00:37.251Z,23.8
2023-10-30T02:01:39.372Z,23.8
2023-10-30T02:02:41.509Z,23.8
2023-10-30T02:03:43.993Z,23.8
2023-10-30T02:04:46.279Z,23.7
2023-10-30T02:05:48.035Z,23.7
2023-10-30T02:06:49.801Z,23.7
2023-10-30T02:07:51.511Z,23.7
2023-10-30T02:08:53.297Z,23.8
2023-10-30T02:09:55.239Z,23.8
2023-10-30T02:10:56.980Z,23.8
2023-10-30T02:11:58.718Z,23.7
2023-10-30T02:13:00.461Z,23.7
2023-10-30T02:14:02.428Z,23.7
2023-10-30T02:15:04.101Z,23.7
2023-10-30T02:16:06.022Z,23.7
2023-10-30T02:17:07.990Z,23.7
2023-10-30T02:18:09.708Z,23.7
2023-10-30T02:19:11.531Z,23.7
2023-10-30T02:20:13.406Z,23.7
2023-10-30T02:21:15.297Z,23.7
2023-10-30T02:22:17.235Z,23.7
2023-10-30T02:23:18.945Z,23.7
2023-10-30T02:24:20.700Z,23.7
2023-10-30T02:25:22.578Z,23.8
2023-10-30T02:26:24.347Z,23.8
2023-10-30T02:27:26.135Z,23.8
2023-10-30T02:28:30.908Z,23.8
2023-10-30T02:29:32.619Z,23.8
2023-10-30T02:30:34.508Z,23.7
2023-10-30T02:31:36.561Z,23.7
2023-10-30T02:32:38.335Z,23.7
2023-10-30T02:33:42.510Z,23.8
2023-10-30T02:34:44.589Z,23.7
2023-10-30T02:35:46.363Z,23.7
2023-10-30T02:36:48.065Z,23.7
2023-10-30T02:37:49.838Z,23.8
2023-10-30T02:38:51.570Z,23.7
2023-10-30T02:39:53.399Z,23.7
2023-10-30T02:40:55.136Z,23.7
2023-10-30T02:41:56.861Z,23.7
2023-10-30T02:42:58.609Z,23.7
2023-10-30T02:44:00.347Z,23.7
2023-10-30T02:45:02.095Z,23.7
2023-10-30T02:46:03.909Z,23.7
2023-10-30T02:47:05.694Z,23.7
2023-10-30T02:48:07.631Z,23.7
2023-10-30T02:49:09.708Z,23.7
2023-10-30T02:50:11.421Z,23.7
2023-10-30T02:51:13.437Z,23.7
2023-10-30T02:52:15.187Z,23.7
2023-10-30T02:53:16.974Z,23.7
2023-10-30T02:54:18.728Z,23.7
2023-10-30T02:55:20.557Z,23.7
2023-10-30T02:56:22.313Z,23.7
2023-10-30T02:57:24.244Z,23.7
2023-10-30T02:58:26.295Z,23.7
2023-10-30T02:59:28.027Z,23.7
2023-10-30T03:00:29.834Z,23.7
2023-10-30T03:01:31.800Z,23.7
2023-10-30T03:02:33.850Z,23.7
2023-10-30T03:03:36.259Z,23.7
2023-10-30T03:04:39.066Z,23.7
2023-10-30T03:05:41.512Z,23.7
2023-10-30T03:06:43.296Z,23.7
2023-10-30T03:07:45.244Z,23.7
2023-10-30T03:08:46.974Z,23.7
2023-10-30T03:09:49.258Z,23.7
2023-10-30T03:10:51.639Z,23.7
2023-10-30T03:11:53.364Z,23.7
2023-10-30T03:12:55.069Z,23.7
2023-10-30T03:13:56.816Z,23.7
2023-10-30T03:14:58.665Z,23.7
2023-10-30T03:16:00.904Z,23.7
2023-10-30T03:17:03.062Z,23.7
2023-10-30T03:18:04.841Z,23.7
2023-10-30T03:19:06.967Z,23.8
2023-10-30T03:20:08.653Z,23.8
2023-10-30T03:21:10.576Z,23.8
2023-10-30T03:22:12.352Z,23.8
2023-10-30T03:23:14.107Z,23.8
2023-10-30T03:24:15.842Z,23.7
2023-10-30T03:25:17.864Z,23.7
2023-10-30T03:26:20.094Z,23.7
2023-10-30T03:27:21.880Z,23.7
2023-10-30T03:28:23.735Z,23.7
2023-10-30T03:29:25.521Z,23.7
2023-10-30T03:30:27.296Z,23.7
2023-10-30T03:31:29.114Z,23.7
2023-10-30T03:32:30.991Z,23.7
2023-10-30T03:33:33.234Z,23.7
2023-10-30T03:34:35.181Z,23.7
2023-10-30T03:35:37.171Z,23.7
2023-10-30T03:36:39.064Z,23.7
2023-10-30T03:37:40.963Z,23.7
2023-10-30T03:38:42.765Z,23.7
2023-10-30T03:39:44.593Z,23.7
2023-10-30T03:40:46.741Z,23.7
2023-10-30T03:41:48.474Z,23.7
2023-10-30T03:42:50.238Z,23.7
2023-10-30T03:43:51.986Z,23.8
2023-10-30T03:44:53.704Z,23.8
2023-10-30T03:45:55.678Z,23.8
2023-10-30T03:46:57.902Z,23.8
2023-10-30T03:47:59.646Z,23.8
2023-10-30T03:49:01.652Z,23.8
2023-10-30T03:50:03.412Z,23.8
2023-10-30T03:51:05.106Z,23.8
2023-10-30T03:52:06.844Z,23.7
2023-10-30T03:53:08.571Z,23.8
2023-10-30T03:54:10.331Z,23.8
2023-10-30T03:55:12.154Z,23.8
2023-10-30T03:56:13.879Z,23.8
2023-10-30T03:57:15.728Z,23.8
2023-10-30T03:58:17.637Z,23.8
2023-10-30T03:59:19.340Z,23.8
2023-10-30T04:00:21.095Z,23.8
2023-10-30T04:01:24.899Z,23.7
2023-10-30T04:02:27.039Z,23.7
2023-10-30T04:03:29.024Z,23.7
2023-10-30T04:04:31.219Z,23.7
2023-10-30T04:05:35.914Z,23.7
2023-10-30T04:06:37.898Z,23.7
2023-10-30T04:07:40.011Z,23.7
2023-10-30T04:08:41.757Z,23.7
2023-10-30T04:09:43.580Z,23.7
2023-10-30T04:10:45.436Z,23.7
2023-10-30T04:11:47.175Z,23.7
2023-10-30T04:12:49.052Z,23.7
2023-10-30T04:13:51.016Z,23.7
2023-10-30T04:14:52.757Z,23.7
2023-10-30T04:15:54.508Z,23.8
2023-10-30T04:16:56.410Z,23.8
2023-10-30T04:17:58.283Z,23.7
2023-10-30T04:19:00.154Z,23.8
2023-10-30T04:20:01.857Z,23.8
2023-10-30T04:21:03.623Z,23.8
2023-10-30T04:22:05.813Z,23.8
2023-10-30T04:23:07.697Z,23.8
2023-10-30T04:24:09.535Z,23.9
2023-10-30T04:25:11.265Z,23.9
2023-10-30T04:26:12.983Z,23.8
2023-10-30T04:27:14.734Z,23.9
2023-10-30T04:28:16.466Z,24
2023-10-30T04:29:18.227Z,24
2023-10-30T04:30:20.016Z,24
2023-10-30T04:31:21.932Z,23.9
2023-10-30T04:32:23.901Z,23.9
2023-10-30T04:33:25.696Z,24
2023-10-30T04:34:27.611Z,23.9
2023-10-30T04:35:29.415Z,24
2023-10-30T04:36:31.250Z,24
2023-10-30T04:37:33.081Z,23.9
2023-10-30T04:38:34.878Z,24
2023-10-30T04:39:36.636Z,23.9
2023-10-30T04:40:38.634Z,24
2023-10-30T04:41:40.376Z,24.4
2023-10-30T04:42:42.137Z,24.1
2023-10-30T04:43:44.203Z,24.3
2023-10-30T04:44:46.341Z,24.2
2023-10-30T04:45:48.234Z,24.4
2023-10-30T04:46:50.261Z,24.2
2023-10-30T04:47:52.242Z,24.3
2023-10-30T04:48:54.148Z,24.1
2023-10-30T04:49:55.930Z,24.1
2023-10-30T04:50:58.037Z,24.1
2023-10-30T04:51:59.735Z,24.2
2023-10-30T04:53:01.437Z,24.1
2023-10-30T04:54:03.217Z,24.1
2023-10-30T04:55:04.934Z,24.2
2023-10-30T04:56:06.913Z,24.2
2023-10-30T04:57:08.648Z,24.1
2023-10-30T04:58:10.378Z,24.3
2023-10-30T04:59:12.055Z,24.3
2023-10-30T05:00:13.834Z,24.3
2023-10-30T05:01:15.782Z,24.2
2023-10-30T05:02:17.727Z,24.1
2023-10-30T05:03:19.548Z,24.2
2023-10-30T05:04:21.414Z,24.1
2023-10-30T05:05:23.198Z,24.4
2023-10-30T05:06:24.961Z,24.4
2023-10-30T05:07:27.064Z,24.4
2023-10-30T05:08:28.845Z,24.3
2023-10-30T05:09:30.776Z,24.3
2023-10-30T05:10:32.590Z,24.3
2023-10-30T05:11:34.303Z,24.3
2023-10-30T05:12:36.140Z,24.3
2023-10-30T05:13:38.032Z,24.2
2023-10-30T05:14:39.735Z,24.2
2023-10-30T05:15:41.553Z,24.1
2023-10-30T05:16:43.835Z,24.1
2023-10-30T05:17:46.394Z,24.1
2023-10-30T05:18:48.403Z,24.2
2023-10-30T05:19:51.060Z,24.2
2023-10-30T05:20:52.879Z,24.2
2023-10-30T05:21:54.870Z,24.2
2023-10-30T05:22:56.836Z,24.2
2023-10-30T05:23:58.567Z,24.2
2023-10-30T05:25:00.316Z,24.2
2023-10-30T05:26:02.150Z,24.1
2023-10-30T05:27:03.890Z,24.1
2023-10-30T05:28:05.917Z,24.2
2023-10-30T05:29:08.037Z,24.2
2023-10-30T05:30:09.932Z,24.4
2023-10-30T05:31:12.005Z,24.3
2023-10-30T05:32:14.336Z,24.3
2023-10-30T05:33:16.149Z,24.2
2023-10-30T05:34:17.886Z,24.3
2023-10-30T05:35:19.884Z,24.2
2023-10-30T05:36:22.374Z,24.2
2023-10-30T05:37:24.303Z,24.3
2023-10-30T05:38:26.289Z,24.2
2023-10-30T05:39:28.517Z,24.2
2023-10-30T05:40:30.299Z,24
2023-10-30T05:41:32.050Z,23.9
2023-10-30T05:42:33.931Z,24
2023-10-30T05:43:35.801Z,24.1
2023-10-30T05:44:37.536Z,24
2023-10-30T05:45:39.317Z,24
2023-10-30T05:46:41.374Z,24
2023-10-30T05:47:43.405Z,23.9
2023-10-30T05:48:45.746Z,23.8
2023-10-30T05:49:48.455Z,23.9
2023-10-30T05:50:50.973Z,24
2023-10-30T05:51:52.671Z,23.9
2023-10-30T05:52:54.403Z,24.4
2023-10-30T05:53:56.109Z,24.3
2023-10-30T05:54:57.798Z,24.4
2023-10-30T05:55:59.528Z,24.3
2023-10-30T05:57:01.249Z,24.2
2023-10-30T05:58:03.007Z,24.1
2023-10-30T05:59:04.711Z,24.2
2023-10-30T06:00:06.461Z,24.2
2023-10-30T06:01:08.183Z,24
2023-10-30T06:02:10.035Z,24
2023-10-30T06:03:11.740Z,24
2023-10-30T06:04:13.787Z,24.3
2023-10-30T06:05:17.223Z,24.4
2023-10-30T06:06:19.006Z,24.2
2023-10-30T06:07:21.033Z,24.1
2023-10-30T06:08:22.776Z,24
2023-10-30T06:09:24.540Z,24
2023-10-30T06:10:26.342Z,24
2023-10-30T06:11:28.078Z,23.6
2023-10-30T06:12:29.891Z,23.2
2023-10-30T06:13:31.825Z,23.3
2023-10-30T06:14:33.533Z,23.7
2023-10-30T06:15:35.440Z,23.7
2023-10-30T06:16:37.320Z,23.7
2023-10-30T06:17:39.255Z,23.8
2023-10-30T06:18:41.164Z,23.6
2023-10-30T06:19:43.154Z,23.5
2023-10-30T06:20:44.948Z,23.7
2023-10-30T06:21:46.855Z,23.7
2023-10-30T06:22:48.743Z,23.8
2023-10-30T06:23:50.528Z,24
2023-10-30T06:24:52.597Z,23.8
2023-10-30T06:25:54.396Z,23.7
2023-10-30T06:26:56.485Z,23.6
2023-10-30T06:27:59.024Z,23.7
2023-10-30T06:29:00.740Z,23.8
2023-10-30T06:30:02.483Z,23.6
2023-10-30T06:31:04.267Z,23.4
2023-10-30T06:32:06.203Z,23.4
2023-10-30T06:33:08.213Z,24.1
2023-10-30T06:34:10.592Z,23.6
2023-10-30T06:35:12.670Z,23.6
2023-10-30T06:36:17.694Z,23.8
2023-10-30T06:37:19.855Z,24
2023-10-30T06:38:21.837Z,23.5
2023-10-30T06:39:23.586Z,23.8
2023-10-30T06:40:25.382Z,23.8
2023-10-30T06:41:27.098Z,23.7
2023-10-30T06:42:28.897Z,23.8
2023-10-30T06:43:30.894Z,23.9
2023-10-30T06:44:32.594Z,23.6
2023-10-30T06:45:34.439Z,23.5
2023-10-30T06:46:36.548Z,23.4
2023-10-30T06:47:38.731Z,23.6
2023-10-30T06:48:40.824Z,23.3
2023-10-30T06:49:43.057Z,23.6
2023-10-30T06:50:44.812Z,23.4
2023-10-30T06:51:46.570Z,23.3
2023-10-30T06:52:48.456Z,23.4
2023-10-30T06:53:50.191Z,23.5
2023-10-30T06:54:52.220Z,23.4
2023-10-30T06:55:54.132Z,23.3
2023-10-30T06:56:55.878Z,23.2
2023-10-30T06:57:57.657Z,23.2
2023-10-30T06:58:59.377Z,23.6
2023-10-30T07:00:01.070Z,23.4
2023-10-30T07:01:02.881Z,23.6
2023-10-30T07:02:05.413Z,23.5
2023-10-30T07:03:07.171Z,23.6
2023-10-30T07:04:09.623Z,23.7
2023-10-30T07:05:11.606Z,23.6
2023-10-30T07:06:13.557Z,23.6
2023-10-30T07:07:15.612Z,23.7
2023-10-30T07:08:17.329Z,23.8
2023-10-30T07:09:19.076Z,24
2023-10-30T07:10:21.005Z,23.8
2023-10-30T07:11:22.699Z,23.9
2023-10-30T07:12:24.459Z,23.7
2023-10-30T07:13:26.264Z,23.7
2023-10-30T07:14:28.001Z,24
2023-10-30T07:15:29.904Z,23.8
2023-10-30T07:16:31.876Z,23.9
2023-10-30T07:17:33.868Z,24
2023-10-30T07:18:35.750Z,24
2023-10-30T07:19:37.542Z,23.9
2023-10-30T07:20:39.263Z,23.9
2023-10-30T07:21:46.675Z,24.1
2023-10-30T07:22:48.628Z,24
2023-10-30T07:23:50.378Z,23.9
2023-10-30T07:24:52.269Z,23.9
2023-10-30T07:25:54.086Z,23.9
2023-10-30T07:26:55.815Z,23.9
2023-10-30T07:27:57.664Z,23.9
2023-10-30T07:28:59.714Z,23.9
2023-10-30T07:30:01.622Z,23.9
2023-10-30T07:31:04.120Z,23.8
2023-10-30T07:32:06.663Z,23.8
2023-10-30T07:33:09.648Z,23.8
2023-10-30T07:34:11.508Z,23.7
2023-10-30T07:35:13.247Z,23.7
2023-10-30T07:36:15.113Z,23.7
2023-10-30T07:37:16.978Z,23.7
2023-10-30T07:38:18.725Z,23.9
2023-10-30T07:39:20.473Z,23.9
2023-10-30T07:40:22.346Z,23.8
2023-10-30T07:41:24.070Z,23.7
2023-10-30T07:42:25.885Z,23.7
2023-10-30T07:43:27.702Z,24
2023-10-30T07:44:29.409Z,23.9
2023-10-30T07:45:31.516Z,24
2023-10-30T07:46:34.026Z,24
2023-10-30T07:47:45.009Z,23.9
2023-10-30T07:48:47.424Z,24.1
2023-10-30T07:49:49.341Z,24
2023-10-30T07:50:51.032Z,23.9
2023-10-30T07:51:52.874Z,23.8
2023-10-30T07:52:54.907Z,23.9
2023-10-30T07:53:56.622Z,24
2023-10-30T07:54:58.425Z,24.1
2023-10-30T07:56:00.339Z,24
2023-10-30T07:57:02.198Z,24
2023-10-30T07:58:03.917Z,24
2023-10-30T07:59:05.697Z,23.9
2023-10-30T08:00:07.505Z,23.9
2023-10-30T08:01:09.530Z,24
2023-10-30T08:02:11.906Z,23.8
2023-10-30T08:03:14.317Z,23.8
2023-10-30T08:04:16.851Z,24
2023-10-30T08:05:19.190Z,24.1
2023-10-30T08:06:20.995Z,24.1
2023-10-30T08:07:22.851Z,24
2023-10-30T08:08:24.634Z,24.1
2023-10-30T08:09:26.415Z,24
2023-10-30T08:10:28.393Z,24.2
2023-10-30T08:11:30.369Z,24.2
2023-10-30T08:12:32.123Z,24.3
2023-10-30T08:13:34.153Z,24.2
2023-10-30T08:14:37.970Z,24.2
2023-10-30T08:15:39.823Z,24.2
2023-10-30T08:16:42.119Z,24.1
2023-10-30T08:17:44.244Z,24.2
2023-10-30T08:18:46.240Z,24.2
2023-10-30T08:19:48.263Z,24.2
2023-10-30T08:20:50.129Z,24.3
2023-10-30T08:21:52.902Z,24.3
2023-10-30T08:22:54.718Z,24.4
2023-10-30T08:23:56.443Z,24.4
2023-10-30T08:24:58.313Z,24.5
2023-10-30T08:26:00.447Z,24.6
2023-10-30T08:27:02.166Z,24.6
2023-10-30T08:28:04.042Z,24.6
2023-10-30T08:29:05.799Z,24.5
2023-10-30T08:30:07.595Z,24.5
2023-10-30T08:31:09.642Z,24.8
2023-10-30T08:32:11.763Z,24.4
2023-10-30T08:33:13.485Z,24.5
2023-10-30T08:34:15.246Z,24.4
2023-10-30T08:35:17.020Z,24.3
2023-10-30T08:36:18.887Z,24.3
2023-10-30T08:37:20.805Z,24.4
2023-10-30T08:38:22.548Z,24.3
2023-10-30T08:39:24.560Z,24.4
2023-10-30T08:40:26.427Z,24.4
2023-10-30T08:41:28.167Z,24.4
2023-10-30T08:42:29.970Z,24.4
2023-10-30T08:43:31.877Z,24.4
2023-10-30T08:44:33.581Z,24.4
2023-10-30T08:45:35.404Z,24.4
2023-10-30T08:46:37.512Z,24.4
2023-10-30T08:47:39.755Z,24.4
2023-10-30T08:48:42.361Z,24.4
2023-10-30T08:49:44.568Z,24.5
2023-10-30T08:50:46.410Z,24.4
2023-10-30T08:52:04.616Z,24.5
2023-10-30T08:53:07.142Z,24.5
2023-10-30T08:54:08.871Z,24.6
2023-10-30T08:55:10.602Z,24.6
2023-10-30T08:56:12.330Z,24.6
2023-10-30T08:57:18.153Z,24.7
2023-10-30T08:58:20.201Z,24.6
2023-10-30T08:59:21.968Z,24.6
2023-10-30T09:00:23.892Z,24.6
2023-10-30T09:01:25.723Z,24.6
2023-10-30T09:02:27.500Z,24.6
2023-10-30T09:03:29.650Z,24.6
2023-10-30T09:04:33.344Z,24.6
2023-10-30T09:05:42.861Z,24.6
2023-10-30T09:06:47.195Z,24.6
2023-10-30T09:08:07.511Z,24.5
2023-10-30T09:09:12.310Z,24.5
2023-10-30T09:10:16.704Z,24.5
2023-10-30T09:11:30.527Z,24.5
2023-10-30T09:12:32.804Z,24.5
2023-10-30T09:13:37.873Z,24.5
2023-10-30T09:14:44.371Z,24.5
2023-10-30T09:15:51.843Z,24.5
2023-10-30T09:17:01.127Z,24.5
2023-10-30T09:18:21.935Z,24.5
2023-10-30T09:19:37.952Z,24.6
2023-10-30T09:21:06.875Z,24.7
2023-10-30T09:22:17.149Z,24.8
2023-10-30T09:23:37.788Z,24.8
2023-10-30T09:24:43.992Z,24.9
2023-10-30T09:25:48.903Z,24.9
2023-10-30T09:26:53.367Z,24.9
2023-10-30T09:27:58.152Z,25
2023-10-30T09:29:20.030Z,25
2023-10-30T09:30:39.802Z,24.9
2023-10-30T09:31:42.390Z,25
2023-10-30T09:32:44.468Z,25.1
2023-10-30T09:33:46.737Z,25.1
2023-10-30T09:34:48.858Z,25.1
2023-10-30T09:35:50.927Z,25.1
2023-10-30T09:38:08.888Z,25
2023-10-30T09:39:14.295Z,25.1
2023-10-30T09:40:16.050Z,25
2023-10-30T09:41:24.806Z,25.1
2023-10-30T09:42:35.182Z,25
2023-10-30T09:43:45.156Z,25
2023-10-30T09:44:55.974Z,24.9
2023-10-30T09:46:03.965Z,24.9
2023-10-30T09:47:09.098Z,25
2023-10-30T09:48:31.033Z,25
2023-10-30T09:49:38.683Z,25
2023-10-30T09:50:40.734Z,24.9
2023-10-30T09:51:42.985Z,25
2023-10-30T09:52:53.965Z,25
2023-10-30T09:53:57.321Z,25.2
2023-10-30T09:55:00.979Z,25.2
2023-10-30T09:56:02.938Z,25.5
2023-10-30T09:57:04.713Z,25.4
2023-10-30T09:58:06.480Z,25.4
2023-10-30T09:59:08.205Z,25.3
2023-10-30T10:00:09.899Z,25.3
2023-10-30T10:01:11.959Z,25.3
2023-10-30T10:02:14.256Z,25.9
2023-10-30T10:03:16.355Z,26.3
2023-10-30T10:04:19.114Z,26.1
2023-10-30T10:05:21.425Z,26.2
2023-10-30T10:06:23.290Z,26.2
2023-10-30T10:07:28.239Z,26.2
2023-10-30T10:08:30.118Z,26.2
2023-10-30T10:09:35.097Z,26.2
2023-10-30T10:10:52.076Z,26.2
2023-10-30T10:12:08.449Z,26.2
2023-10-30T10:13:25.233Z,26.2
2023-10-30T10:15:10.916Z,26.2
2023-10-30T10:17:22.120Z,26
2023-10-30T10:18:55.098Z,26
2023-10-30T10:20:40.227Z,26
2023-10-30T10:21:57.617Z,25.9
2023-10-30T10:23:19.647Z,25.9
2023-10-30T10:24:31.360Z,25.8
2023-10-30T10:25:43.434Z,25.8
2023-10-30T10:27:05.114Z,25.8
2023-10-30T10:28:15.486Z,25.8
2023-10-30T10:29:28.717Z,25.8
2023-10-30T10:30:35.216Z,25.7
2023-10-30T10:31:45.137Z,25.7
2023-10-30T10:32:47.416Z,25.7
2023-10-30T10:33:50.528Z,25.7
2023-10-30T10:34:53.623Z,25.7
2023-10-30T10:36:02.252Z,25.8
2023-10-30T10:37:22.956Z,25.8
2023-10-30T10:38:27.186Z,25.8
2023-10-30T10:39:29.237Z,25.8
2023-10-30T10:40:35.746Z,25.9
2023-10-30T10:41:48.306Z,25.8
2023-10-30T10:42:55.386Z,25.8
2023-10-30T10:43:57.243Z,25.8
2023-10-30T10:44:59.023Z,25.8
2023-10-30T10:46:01.427Z,25.8
2023-10-30T10:47:03.594Z,25.9
2023-10-30T10:48:05.291Z,25.9
2023-10-30T10:49:06.998Z,25.9
2023-10-30T10:50:08.713Z,25.9
2023-10-30T10:51:10.492Z,25.9
2023-10-30T10:52:12.222Z,25.8
2023-10-30T10:53:13.928Z,25.8
2023-10-30T10:54:15.676Z,25.9
2023-10-30T10:55:17.414Z,26
2023-10-30T10:56:19.321Z,26.1
2023-10-30T10:57:21.106Z,26
2023-10-30T10:58:23.171Z,26
2023-10-30T10:59:29.574Z,26
2023-10-30T11:00:31.447Z,25.9
2023-10-30T11:01:33.837Z,25.9
2023-10-30T11:02:36.057Z,26
2023-10-30T11:03:39.107Z,26.1
2023-10-30T11:04:41.533Z,26.2
2023-10-30T11:05:43.804Z,26
2023-10-30T11:06:45.740Z,26
2023-10-30T11:07:47.703Z,25.8
2023-10-30T11:08:49.443Z,26.1
2023-10-30T11:09:52.062Z,25.9
2023-10-30T11:10:55.162Z,26
2023-10-30T11:11:57.063Z,26.1
2023-10-30T11:12:59.113Z,26.1
2023-10-30T11:14:01.111Z,26.1
2023-10-30T11:15:02.918Z,26.1
2023-10-30T11:16:05.131Z,26.1
2023-10-30T11:17:07.464Z,26.1
2023-10-30T11:18:09.292Z,26.1
2023-10-30T11:19:11.371Z,26.1
2023-10-30T11:20:13.074Z,25.9
2023-10-30T11:21:14.880Z,25.9
2023-10-30T11:22:16.607Z,26.1
2023-10-30T11:23:18.387Z,26.1
2023-10-30T11:24:20.071Z,26.1
2023-10-30T11:25:24.562Z,26.1
2023-10-30T11:26:26.425Z,26.3
2023-10-30T11:27:28.428Z,26.3
2023-10-30T11:28:30.570Z,26.2
2023-10-30T11:29:32.325Z,26.1
2023-10-30T11:30:34.123Z,26.2
2023-10-30T11:31:36.174Z,26.3
2023-10-30T11:32:38.140Z,26.2
2023-10-30T11:33:40.197Z,26.2
2023-10-30T11:34:42.015Z,26.3
2023-10-30T11:35:43.764Z,26.4
2023-10-30T11:36:45.561Z,26.2
2023-10-30T11:37:47.433Z,26.2
2023-10-30T11:38:49.144Z,26.3
2023-10-30T11:39:50.923Z,26.3
2023-10-30T11:40:52.929Z,26.2
2023-10-30T11:41:54.682Z,26.3
2023-10-30T11:42:56.612Z,26.3
2023-10-30T11:43:58.604Z,26.3
2023-10-30T11:45:00.338Z,26.2
2023-10-30T11:46:02.355Z,26.2
2023-10-30T11:47:04.681Z,26.3
2023-10-30T11:48:06.935Z,26.1
2023-10-30T11:49:09.377Z,26.1
2023-10-30T11:50:11.083Z,26.3
2023-10-30T11:51:16.616Z,26.3
2023-10-30T11:52:18.469Z,26.3
2023-10-30T11:53:20.214Z,26.3
2023-10-30T11:54:22.170Z,26.3
2023-10-30T11:55:23.898Z,26.3
2023-10-30T11:56:25.689Z,26.2
2023-10-30T11:57:27.419Z,26.1
2023-10-30T11:58:29.187Z,26
2023-10-30T11:59:30.954Z,26
2023-10-30T12:00:32.710Z,26.1
2023-10-30T12:01:34.750Z,26
2023-10-30T12:02:36.830Z,26
2023-10-30T12:03:38.858Z,26.1
2023-10-30T12:04:41.160Z,26.1
2023-10-30T12:05:43.502Z,26.1
2023-10-30T12:06:45.244Z,26
2023-10-30T12:07:47.097Z,25.9
2023-10-30T12:08:48.825Z,25.9
2023-10-30T12:09:50.609Z,25.9
2023-10-30T12:10:52.462Z,25.9
2023-10-30T12:11:54.209Z,25.9
2023-10-30T12:12:56.075Z,25.9
2023-10-30T12:13:58.143Z,25.8
2023-10-30T12:14:59.908Z,25.7
2023-10-30T12:16:01.985Z,25.8
2023-10-30T12:17:03.994Z,25.8
2023-10-30T12:18:05.837Z,25.8
2023-10-30T12:19:07.773Z,25.8
2023-10-30T12:20:09.497Z,26
2023-10-30T12:21:11.269Z,26
2023-10-30T12:22:12.964Z,26.1
2023-10-30T12:23:14.643Z,26
2023-10-30T12:24:18.704Z,26
2023-10-30T12:25:23.272Z,26
2023-10-30T12:26:24.985Z,26.1
2023-10-30T12:27:26.906Z,26
2023-10-30T12:28:28.767Z,26.1
2023-10-30T12:29:30.497Z,26.2
2023-10-30T12:30:32.408Z,26.1
2023-10-30T12:31:34.676Z,26.1
2023-10-30T12:32:36.619Z,26.1
2023-10-30T12:33:38.540Z,26.1
2023-10-30T12:34:40.449Z,26.1
2023-10-30T12:35:42.171Z,26
2023-10-30T12:36:44.126Z,26
2023-10-30T12:37:46.099Z,26
2023-10-30T12:38:47.847Z,26
2023-10-30T12:39:49.626Z,26
2023-10-30T12:40:51.511Z,26
2023-10-30T12:41:53.354Z,25.9
2023-10-30T12:42:55.532Z,26
2023-10-30T12:43:57.335Z,25.9
2023-10-30T12:44:59.050Z,25.9
2023-10-30T12:46:01.026Z,25.9
2023-10-30T12:47:03.279Z,25.9
2023-10-30T12:48:05.085Z,25.9
2023-10-30T12:49:07.268Z,25.7
2023-10-30T12:50:09.113Z,25.8
2023-10-30T12:51:10.977Z,25.9
2023-10-30T12:52:13.028Z,25.8
2023-10-30T12:53:14.752Z,25.6
2023-10-30T12:54:16.459Z,25.7
2023-10-30T12:55:18.257Z,25.7
2023-10-30T12:56:19.979Z,25.5
2023-10-30T12:57:21.738Z,25.5
2023-10-30T12:58:27.264Z,25.6
2023-10-30T12:59:29.395Z,25.5
2023-10-30T13:00:31.394Z,25.3
2023-10-30T13:03:01.130Z,25.2
2023-10-30T13:04:03.486Z,25.2
2023-10-30T13:05:06.205Z,25.1
2023-10-30T13:06:08.489Z,25.1
2023-10-30T13:07:10.227Z,25
2023-10-30T13:08:11.972Z,24.9
2023-10-30T13:09:13.712Z,24.9
2023-10-30T13:10:15.455Z,24.9
2023-10-30T13:11:17.275Z,24.9
2023-10-30T13:12:19.082Z,25
2023-10-30T13:13:20.819Z,25
2023-10-30T13:14:22.582Z,25
2023-10-30T13:15:24.373Z,25.1
2023-10-30T13:16:26.202Z,25.1
2023-10-30T13:17:28.432Z,25.2
2023-10-30T13:18:30.480Z,25.2
2023-10-30T13:19:32.324Z,25.3
2023-10-30T13:20:34.070Z,25.3
2023-10-30T13:21:35.833Z,25.3
2023-10-30T13:22:37.606Z,25.3
2023-10-30T13:23:39.324Z,25.3
2023-10-30T13:24:41.083Z,25.3
2023-10-30T13:25:42.857Z,25.4
2023-10-30T13:26:44.594Z,25.4
2023-10-30T13:27:46.385Z,25.4
2023-10-30T13:28:48.276Z,25.4
2023-10-30T13:29:50.000Z,25.3
2023-10-30T13:30:51.932Z,25.2
2023-10-30T13:31:53.964Z,25.3
2023-10-30T13:32:55.992Z,25.2
2023-10-30T13:33:58.413Z,25.2
2023-10-30T13:35:00.618Z,25.3
2023-10-30T13:36:04.577Z,25.2
2023-10-30T13:37:06.450Z,25.3
2023-10-30T13:38:08.257Z,25.3
2023-10-30T13:39:09.990Z,25.4
2023-10-30T13:40:11.911Z,25.4
2023-10-30T13:41:13.709Z,25.4
2023-10-30T13:42:15.534Z,25.4
2023-10-30T13:43:17.262Z,25.4
2023-10-30T13:44:18.995Z,25.4
2023-10-30T13:45:20.783Z,25.5
2023-10-30T13:46:22.693Z,25.5
2023-10-30T13:47:24.686Z,25.5
2023-10-30T13:48:26.544Z,25.5
2023-10-30T13:49:28.690Z,25.5
2023-10-30T13:50:30.947Z,25.6
2023-10-30T13:51:32.801Z,25.5
2023-10-30T13:52:34.673Z,25.5
2023-10-30T13:53:36.433Z,25.5
2023-10-30T13:54:38.220Z,25.5
2023-10-30T13:55:40.409Z,25.5
2023-10-30T13:56:42.548Z,25.6
2023-10-30T13:57:44.432Z,25.6
2023-10-30T13:58:46.343Z,25.5
2023-10-30T13:59:48.575Z,25.5
2023-10-30T14:00:51.257Z,25.5
2023-10-30T14:01:53.407Z,25.5
2023-10-30T14:02:56.072Z,25.5
2023-10-30T14:03:58.254Z,25.4
2023-10-30T14:05:00.190Z,25.5
2023-10-30T14:06:01.980Z,25.5